createdAt,value
2022-09-30T00:02:03.884Z,16.92
2022-09-30T00:04:32.316Z,16.91
2022-09-30T00:07:00.891Z,16.91
2022-09-30T00:09:29.315Z,16.90
2022-09-30T00:11:59.082Z,16.92
2022-09-30T00:14:27.454Z,16.91
2022-09-30T00:16:55.866Z,16.90
2022-09-30T00:19:24.221Z,16.89
2022-09-30T00:21:52.701Z,16.89
2022-09-30T00:24:21.034Z,16.89
2022-09-30T00:26:49.840Z,16.88
2022-09-30T00:29:19.564Z,16.89
2022-09-30T00:31:47.937Z,16.89
2022-09-30T00:34:19.575Z,16.88
2022-09-30T00:36:50.441Z,16.89
2022-09-30T00:39:20.778Z,16.89
2022-09-30T00:41:51.240Z,16.90
2022-09-30T00:44:59.039Z,16.88
2022-09-30T00:47:45.243Z,16.88
2022-09-30T00:50:28.222Z,16.88
2022-09-30T00:53:01.006Z,16.87
2022-09-30T00:59:34.262Z,16.85
2022-09-30T01:02:03.041Z,16.84
2022-09-30T01:04:34.530Z,16.84
2022-09-30T01:07:03.453Z,16.85
2022-09-30T01:09:33.475Z,16.83
2022-09-30T01:12:04.840Z,16.84
2022-09-30T01:14:33.265Z,16.82
2022-09-30T01:17:07.785Z,16.82
2022-09-30T01:20:06.300Z,16.83
2022-09-30T01:22:42.458Z,16.80
2022-09-30T01:25:32.192Z,16.82
2022-09-30T01:28:22.034Z,16.82
2022-09-30T01:31:03.684Z,16.83
2022-09-30T01:33:39.073Z,16.82
2022-09-30T01:36:26.234Z,16.81
2022-09-30T01:38:59.496Z,16.80
2022-09-30T01:41:35.835Z,16.80
2022-09-30T01:44:10.113Z,16.81
2022-09-30T01:46:44.296Z,16.81
2022-09-30T01:49:18.172Z,16.81
2022-09-30T01:51:51.201Z,16.77
2022-09-30T01:54:23.530Z,16.82
2022-09-30T01:56:53.960Z,16.82
2022-09-30T01:59:26.124Z,16.81
2022-09-30T02:01:58.516Z,16.81
2022-09-30T02:04:31.231Z,16.81
2022-09-30T02:07:02.548Z,16.78
2022-09-30T02:09:36.470Z,16.80
2022-09-30T02:12:08.563Z,16.79
2022-09-30T02:14:40.468Z,16.78
2022-09-30T02:17:23.807Z,16.80
2022-09-30T02:19:55.283Z,16.79
2022-09-30T02:22:26.649Z,16.78
2022-09-30T02:24:59.037Z,16.78
2022-09-30T02:27:32.960Z,16.78
2022-09-30T02:30:03.985Z,16.78
2022-09-30T02:32:38.253Z,16.77
2022-09-30T02:35:10.508Z,16.78
2022-09-30T02:37:41.825Z,16.77
2022-09-30T02:40:13.719Z,16.77
2022-09-30T02:42:45.010Z,16.75
2022-09-30T02:45:16.676Z,16.76
2022-09-30T02:47:58.248Z,16.75
2022-09-30T02:50:31.349Z,16.75
2022-09-30T02:53:08.032Z,16.77
2022-09-30T02:55:45.527Z,16.77
2022-09-30T02:58:16.216Z,16.75
2022-09-30T03:00:44.912Z,16.74
2022-09-30T03:03:19.590Z,16.75
2022-09-30T03:05:50.211Z,16.73
2022-09-30T03:08:18.954Z,16.75
2022-09-30T03:10:50.921Z,16.71
2022-09-30T03:13:30.741Z,16.74
2022-09-30T03:16:13.780Z,16.75
2022-09-30T03:18:56.483Z,16.73
2022-09-30T03:21:37.581Z,16.72
2022-09-30T03:24:31.846Z,16.72
2022-09-30T03:27:08.956Z,16.72
2022-09-30T03:29:46.587Z,16.72
2022-09-30T03:32:25.990Z,16.71
2022-09-30T03:35:03.354Z,16.73
2022-09-30T03:37:35.747Z,16.71
2022-09-30T03:40:10.168Z,16.71
2022-09-30T03:42:41.353Z,16.72
2022-09-30T03:45:13.308Z,16.72
2022-09-30T03:47:44.523Z,16.71
2022-09-30T03:50:16.736Z,16.69
2022-09-30T03:52:45.349Z,16.71
2022-09-30T03:55:13.746Z,16.69
2022-09-30T03:57:44.213Z,16.69
2022-09-30T04:00:14.202Z,16.68
2022-09-30T04:02:42.998Z,16.68
2022-09-30T04:05:11.418Z,16.68
2022-09-30T04:07:41.316Z,16.65
2022-09-30T04:10:10.488Z,16.67
2022-09-30T04:12:38.974Z,16.67
2022-09-30T04:15:08.552Z,16.66
2022-09-30T04:17:52.042Z,16.67
2022-09-30T04:29:06.767Z,16.66
2022-09-30T04:31:48.068Z,16.62
2022-09-30T04:34:56.031Z,16.65
2022-09-30T04:37:24.712Z,16.65
2022-09-30T04:39:54.548Z,16.64
2022-09-30T04:45:46.960Z,16.65
2022-09-30T04:48:16.344Z,16.65
2022-09-30T04:50:50.044Z,16.65
2022-09-30T04:53:23.462Z,16.65
2022-09-30T04:56:01.441Z,16.65
2022-09-30T04:58:36.809Z,16.65
2022-09-30T05:01:08.319Z,16.61
2022-09-30T05:03:41.795Z,16.62
2022-09-30T05:06:11.010Z,16.63
2022-09-30T05:08:46.070Z,16.61
2022-09-30T05:11:18.676Z,16.61
2022-09-30T05:13:48.602Z,16.60
2022-09-30T05:16:17.814Z,16.62
2022-09-30T05:18:49.830Z,16.59
2022-09-30T05:21:36.824Z,16.61
2022-09-30T05:24:05.688Z,16.62
2022-09-30T05:26:35.794Z,16.62
2022-09-30T05:29:07.327Z,16.61
2022-09-30T05:31:56.712Z,16.62
2022-09-30T05:34:25.686Z,16.59
2022-09-30T05:36:54.808Z,16.59
2022-09-30T05:39:23.817Z,16.53
2022-09-30T05:41:53.970Z,16.58
2022-09-30T05:44:23.287Z,16.59
2022-09-30T05:46:52.495Z,16.57
2022-09-30T05:49:22.195Z,16.58
2022-09-30T05:51:55.806Z,16.56
2022-09-30T05:54:24.472Z,16.57
2022-09-30T05:56:57.937Z,16.58
2022-09-30T05:59:27.047Z,16.58
2022-09-30T06:01:59.089Z,16.61
2022-09-30T06:04:28.111Z,16.58
2022-09-30T06:06:56.886Z,16.57
2022-09-30T06:09:29.715Z,16.56
2022-09-30T06:12:01.137Z,16.56
2022-09-30T06:14:32.964Z,16.56
2022-09-30T06:17:01.718Z,16.57
2022-09-30T06:19:33.884Z,16.56
2022-09-30T06:22:37.540Z,16.55
2022-09-30T06:25:08.997Z,16.58
2022-09-30T06:27:46.330Z,16.58
2022-09-30T06:30:18.287Z,16.54
2022-09-30T06:33:01.490Z,16.59
2022-09-30T06:35:34.434Z,16.60
2022-09-30T06:38:04.630Z,16.59
2022-09-30T06:40:39.237Z,16.61
2022-09-30T06:43:11.465Z,16.61
2022-09-30T06:45:47.932Z,16.62
2022-09-30T06:48:35.627Z,16.63
2022-09-30T06:51:09.916Z,16.63
2022-09-30T06:53:39.187Z,16.64
2022-09-30T06:56:07.550Z,16.64
2022-09-30T06:58:40.828Z,16.64
2022-09-30T07:01:11.410Z,16.65
2022-09-30T07:03:40.144Z,16.64
2022-09-30T07:06:08.893Z,16.66
2022-09-30T07:08:38.924Z,16.64
2022-09-30T07:11:11.941Z,16.64
2022-09-30T07:13:43.127Z,16.64
2022-09-30T07:16:12.217Z,16.64
2022-09-30T07:18:42.310Z,16.64
2022-09-30T07:21:12.523Z,16.64
2022-09-30T07:23:47.507Z,16.63
2022-09-30T07:26:17.574Z,16.63
2022-09-30T07:28:47.695Z,16.64
2022-09-30T07:31:32.595Z,16.65
2022-09-30T07:34:02.622Z,16.67
2022-09-30T07:36:33.470Z,16.66
2022-09-30T07:39:06.850Z,16.67
2022-09-30T07:41:38.663Z,16.67
2022-09-30T07:44:12.156Z,16.67
2022-09-30T07:46:41.252Z,16.69
2022-09-30T07:49:14.275Z,16.71
2022-09-30T07:51:50.376Z,16.63
2022-09-30T07:54:22.565Z,16.71
2022-09-30T07:57:09.187Z,16.72
2022-09-30T07:59:41.268Z,16.71
2022-09-30T08:02:14.577Z,16.74
2022-09-30T08:04:44.674Z,16.72
2022-09-30T08:07:14.546Z,16.74
2022-09-30T08:09:43.107Z,16.71
2022-09-30T08:12:11.667Z,16.75
2022-09-30T08:14:41.810Z,16.76
2022-09-30T08:17:10.224Z,16.75
2022-09-30T08:19:41.373Z,16.77
2022-09-30T08:22:10.649Z,16.75
2022-09-30T08:24:39.166Z,16.77
2022-09-30T08:27:07.565Z,16.79
2022-09-30T08:29:53.903Z,16.80
2022-09-30T08:32:24.741Z,16.80
2022-09-30T08:34:55.193Z,16.83
2022-09-30T08:37:23.802Z,16.84
2022-09-30T08:39:52.429Z,16.83
2022-09-30T08:42:38.975Z,16.86
2022-09-30T08:45:18.376Z,16.85
2022-09-30T08:47:54.368Z,16.89
2022-09-30T08:50:27.021Z,16.90
2022-09-30T08:52:59.585Z,16.91
2022-09-30T08:55:32.404Z,16.91
2022-09-30T08:58:04.064Z,16.97
2022-09-30T09:00:32.778Z,16.96
2022-09-30T09:03:04.393Z,17.00
2022-09-30T09:05:40.269Z,17.03
2022-09-30T09:08:13.317Z,17.06
2022-09-30T09:10:44.600Z,17.06
2022-09-30T09:13:36.551Z,17.05
2022-09-30T09:20:37.210Z,17.11
2022-09-30T09:23:16.809Z,17.10
2022-09-30T09:25:51.921Z,17.09
2022-09-30T09:28:29.075Z,17.14
2022-09-30T09:31:04.302Z,17.17
2022-09-30T09:33:59.849Z,17.17
2022-09-30T09:36:44.074Z,17.17
2022-09-30T09:39:22.525Z,17.19
2022-09-30T09:41:56.078Z,17.19
2022-09-30T09:44:29.419Z,17.19
2022-09-30T09:47:15.536Z,17.18
2022-09-30T09:49:45.360Z,17.19
2022-09-30T09:52:49.150Z,17.20
2022-09-30T09:55:20.601Z,17.21
2022-09-30T09:57:49.950Z,17.22
2022-09-30T10:00:42.474Z,17.22
2022-09-30T10:03:18.801Z,17.24
2022-09-30T10:05:47.842Z,17.26
2022-09-30T10:08:19.708Z,17.23
2022-09-30T10:10:50.246Z,17.31
2022-09-30T10:13:20.565Z,17.32
2022-09-30T10:15:49.857Z,17.32
2022-09-30T10:18:22.713Z,17.33
2022-09-30T10:20:53.347Z,17.33
2022-09-30T10:23:28.619Z,17.34
2022-09-30T10:26:01.876Z,17.34
2022-09-30T10:28:32.797Z,17.35
2022-09-30T10:31:14.478Z,17.38
2022-09-30T10:33:45.124Z,17.39
2022-09-30T10:36:16.324Z,17.40
2022-09-30T10:39:02.632Z,17.44
2022-09-30T10:41:36.909Z,17.45
2022-09-30T10:44:07.835Z,17.47
2022-09-30T10:46:38.857Z,17.46
2022-09-30T10:49:10.972Z,17.49
2022-09-30T10:51:40.082Z,17.53
2022-09-30T10:54:38.251Z,17.55
2022-09-30T10:57:07.154Z,17.58
2022-09-30T10:59:38.287Z,17.56
2022-09-30T11:02:30.360Z,17.63
2022-09-30T11:05:08.725Z,17.65
2022-09-30T11:07:42.595Z,17.66
2022-09-30T11:10:26.582Z,17.70
2022-09-30T11:13:00.812Z,17.76
2022-09-30T11:15:31.601Z,17.74
2022-09-30T11:18:02.126Z,17.83
2022-09-30T11:20:33.213Z,17.83
2022-09-30T11:23:05.390Z,17.82
2022-09-30T11:25:39.877Z,17.86
2022-09-30T11:28:22.141Z,17.84
2022-09-30T11:30:57.106Z,17.86
2022-09-30T11:33:36.388Z,17.85
2022-09-30T11:36:10.449Z,17.82
2022-09-30T11:38:52.391Z,17.89
2022-09-30T11:41:26.483Z,17.91
2022-09-30T11:44:01.118Z,17.94
2022-09-30T11:46:48.070Z,17.96
2022-09-30T11:49:33.754Z,18.00
2022-09-30T11:52:09.255Z,18.03
2022-09-30T11:55:02.069Z,18.06
2022-09-30T11:57:33.949Z,18.08
2022-09-30T12:00:06.497Z,18.12
2022-09-30T12:02:42.283Z,18.14
2022-09-30T12:05:14.380Z,18.15
2022-09-30T12:07:47.677Z,18.18
2022-09-30T12:10:21.596Z,18.18
2022-09-30T12:12:56.257Z,18.22
2022-09-30T12:15:26.266Z,18.24
2022-09-30T12:17:59.128Z,18.27
2022-09-30T12:20:29.853Z,18.28
2022-09-30T12:23:02.810Z,18.29
2022-09-30T12:25:33.354Z,18.33
2022-09-30T12:28:27.110Z,18.31
2022-09-30T12:30:59.928Z,18.31
2022-09-30T12:33:38.202Z,18.32
2022-09-30T12:36:37.107Z,18.30
2022-09-30T12:39:54.246Z,18.32
2022-09-30T12:42:37.390Z,18.33
2022-09-30T12:45:52.143Z,18.36
2022-09-30T12:48:22.446Z,18.37
2022-09-30T12:50:53.161Z,18.39
2022-09-30T12:53:25.298Z,18.42
2022-09-30T12:55:54.468Z,18.44
2022-09-30T12:58:30.633Z,18.47
2022-09-30T13:01:05.691Z,18.48
2022-09-30T13:03:46.809Z,18.51
2022-09-30T13:06:16.185Z,18.55
2022-09-30T13:08:50.911Z,18.57
2022-09-30T13:11:40.316Z,18.54
2022-09-30T13:14:32.785Z,18.50
2022-09-30T13:17:29.996Z,18.46
2022-09-30T13:19:58.642Z,18.44
2022-09-30T13:23:00.167Z,18.52
2022-09-30T13:25:28.742Z,18.61
2022-09-30T13:28:32.298Z,18.66
2022-09-30T13:31:16.214Z,18.73
2022-09-30T13:33:47.788Z,18.71
2022-09-30T13:36:31.410Z,18.68
2022-09-30T13:39:22.124Z,18.65
2022-09-30T13:42:01.753Z,18.62
2022-09-30T13:44:35.513Z,18.57
2022-09-30T13:47:11.984Z,18.56
2022-09-30T13:49:44.842Z,18.53
2022-09-30T13:52:19.595Z,18.54
2022-09-30T13:54:48.648Z,18.53
2022-09-30T13:57:20.441Z,18.52
2022-09-30T13:59:56.226Z,18.53
2022-09-30T14:02:49.556Z,18.52
2022-09-30T14:05:43.576Z,18.54
2022-09-30T14:08:55.106Z,18.53
2022-09-30T14:11:32.704Z,18.52
2022-09-30T14:14:11.302Z,18.53
2022-09-30T14:16:54.120Z,18.56
2022-09-30T14:19:40.285Z,18.54
2022-09-30T14:22:11.703Z,18.54
2022-09-30T14:24:41.235Z,18.54
2022-09-30T14:27:21.240Z,18.56
2022-09-30T14:29:56.477Z,18.56
2022-09-30T14:32:29.047Z,18.57
2022-09-30T14:34:58.279Z,18.60
2022-09-30T14:37:30.814Z,18.57
2022-09-30T14:39:59.725Z,18.57
2022-09-30T14:42:31.572Z,18.57
2022-09-30T14:45:04.867Z,18.57
2022-09-30T14:47:35.259Z,18.57
2022-09-30T14:50:04.719Z,18.57
2022-09-30T14:52:39.896Z,18.56
2022-09-30T14:55:21.118Z,18.54
2022-09-30T14:57:50.068Z,18.56
2022-09-30T15:00:31.396Z,18.53
2022-09-30T15:03:00.642Z,18.53
2022-09-30T15:05:29.283Z,18.52
2022-09-30T15:07:59.083Z,18.53
2022-09-30T15:10:29.269Z,18.52
2022-09-30T15:12:57.662Z,18.53
2022-09-30T15:15:36.618Z,18.54
2022-09-30T15:18:25.107Z,18.53
2022-09-30T15:20:55.080Z,18.52
2022-09-30T15:23:27.853Z,18.53
2022-09-30T15:25:57.372Z,18.50
2022-09-30T15:28:26.072Z,18.53
2022-09-30T15:30:55.259Z,18.56
2022-09-30T15:33:27.416Z,18.61
2022-09-30T15:36:03.836Z,18.64
2022-09-30T15:38:36.127Z,18.65
2022-09-30T15:41:07.320Z,18.67
2022-09-30T15:43:39.661Z,18.64
2022-09-30T15:46:27.253Z,18.63
2022-09-30T15:48:58.503Z,18.62
2022-09-30T15:51:35.499Z,18.62
2022-09-30T15:54:31.843Z,18.61
2022-09-30T15:57:03.200Z,18.60
2022-09-30T16:00:00.897Z,18.59
2022-09-30T16:02:31.407Z,18.58
2022-09-30T16:05:02.035Z,18.54
2022-09-30T16:07:32.439Z,18.54
2022-09-30T16:10:02.396Z,18.52
2022-09-30T16:12:33.700Z,18.53
2022-09-30T16:15:08.363Z,18.54
2022-09-30T16:17:38.597Z,18.54
2022-09-30T16:20:16.077Z,18.52
2022-09-30T16:23:02.338Z,18.52
2022-09-30T16:25:37.501Z,18.49
2022-09-30T16:28:14.560Z,18.47
2022-09-30T16:30:52.492Z,18.47
2022-09-30T16:33:21.231Z,18.51
2022-09-30T16:35:52.982Z,18.46
2022-09-30T16:38:21.350Z,18.49
2022-09-30T16:40:51.059Z,18.49
2022-09-30T16:43:19.446Z,18.48
2022-09-30T16:45:48.452Z,18.43
2022-09-30T16:48:18.495Z,18.47
2022-09-30T16:50:52.034Z,18.47
2022-09-30T16:53:26.116Z,18.45
2022-09-30T16:55:57.418Z,18.46
2022-09-30T16:58:32.348Z,18.44
2022-09-30T17:01:04.235Z,18.46
2022-09-30T17:03:35.895Z,18.43
2022-09-30T17:06:04.703Z,18.42
2022-09-30T17:08:35.417Z,18.38
2022-09-30T17:11:09.714Z,18.42
2022-09-30T17:13:42.428Z,18.41
2022-09-30T17:16:11.190Z,18.43
2022-09-30T17:18:40.408Z,18.37
2022-09-30T17:21:10.260Z,18.41
2022-09-30T17:23:39.330Z,18.41
2022-09-30T17:26:10.950Z,18.35
2022-09-30T17:28:41.737Z,18.41
2022-09-30T17:31:17.916Z,18.35
2022-09-30T17:33:48.216Z,18.38
2022-09-30T17:36:22.914Z,18.33
2022-09-30T17:39:01.525Z,18.34
2022-09-30T17:41:52.632Z,18.38
2022-09-30T17:47:44.062Z,18.37
2022-09-30T17:50:17.354Z,18.36
2022-09-30T17:52:55.595Z,18.35
2022-09-30T17:55:27.837Z,18.35
2022-09-30T17:57:57.814Z,18.35
2022-09-30T18:00:27.938Z,18.36
2022-09-30T18:02:56.527Z,18.35
2022-09-30T18:05:27.267Z,18.34
2022-09-30T18:07:57.158Z,18.34
2022-09-30T18:10:26.223Z,18.32
2022-09-30T18:12:55.289Z,18.33
2022-09-30T18:15:27.056Z,18.33
2022-09-30T18:17:55.472Z,18.32
2022-09-30T18:20:25.548Z,18.32
2022-09-30T18:22:56.409Z,18.28
2022-09-30T18:25:54.716Z,18.30
2022-09-30T18:28:30.697Z,18.31
2022-09-30T18:31:10.074Z,18.31
2022-09-30T18:33:39.569Z,18.28
2022-09-30T18:36:10.803Z,18.26
2022-09-30T18:38:45.224Z,18.25
2022-09-30T18:41:30.752Z,18.28
2022-09-30T18:44:02.978Z,18.25
2022-09-30T18:46:38.298Z,18.28
2022-09-30T18:49:13.021Z,18.26
2022-09-30T18:51:43.285Z,18.27
2022-09-30T18:54:18.479Z,18.27
2022-09-30T18:56:51.164Z,18.27
2022-09-30T18:59:24.046Z,18.22
2022-09-30T19:02:00.593Z,18.25
2022-09-30T19:04:34.455Z,18.22
2022-09-30T19:07:11.044Z,18.26
2022-09-30T19:09:44.797Z,18.19
2022-09-30T19:12:17.712Z,18.25
2022-09-30T19:14:50.926Z,18.25
2022-09-30T19:17:21.173Z,18.20
2022-09-30T19:19:52.202Z,18.23
2022-09-30T19:22:25.037Z,18.19
2022-09-30T19:25:01.998Z,18.18
2022-09-30T19:27:30.344Z,18.21
2022-09-30T19:30:00.964Z,18.22
2022-09-30T19:32:35.865Z,18.15
2022-09-30T19:35:10.365Z,18.21
2022-09-30T19:37:57.819Z,18.20
2022-09-30T19:43:08.240Z,18.19
2022-09-30T19:45:45.031Z,18.18
2022-09-30T19:48:17.565Z,18.14
2022-09-30T19:50:45.899Z,18.17
2022-09-30T19:53:26.912Z,18.18
2022-09-30T19:56:03.263Z,18.17
2022-09-30T19:58:33.055Z,18.17
2022-09-30T20:01:02.144Z,18.16
2022-09-30T20:03:32.780Z,18.15
2022-09-30T20:06:03.593Z,18.14
2022-09-30T20:08:33.022Z,18.14
2022-09-30T20:11:06.611Z,18.13
2022-09-30T20:13:35.517Z,18.13
2022-09-30T20:16:05.730Z,18.12
2022-09-30T20:18:36.082Z,18.11
2022-09-30T20:21:09.691Z,18.11
2022-09-30T20:23:39.010Z,18.11
2022-09-30T20:26:15.033Z,18.08
2022-09-30T20:28:51.038Z,18.08
2022-09-30T20:31:26.093Z,18.06
2022-09-30T20:33:59.565Z,18.06
2022-09-30T20:36:30.483Z,18.10
2022-09-30T20:39:00.605Z,18.10
2022-09-30T20:41:31.233Z,18.09
2022-09-30T20:44:03.108Z,18.09
2022-09-30T20:46:32.473Z,18.05
2022-09-30T20:49:03.024Z,18.07
2022-09-30T20:51:35.505Z,18.08
2022-09-30T20:54:04.466Z,18.06
2022-09-30T20:56:50.092Z,18.05
2022-09-30T20:59:24.679Z,18.06
2022-09-30T21:02:18.526Z,18.05
2022-09-30T21:04:52.537Z,18.03
2022-09-30T21:07:21.314Z,18.03
2022-09-30T21:09:49.702Z,18.04
2022-09-30T21:12:19.102Z,18.03
2022-09-30T21:14:47.629Z,18.00
2022-09-30T21:17:28.723Z,18.02
2022-09-30T21:20:03.675Z,17.99
2022-09-30T21:22:37.337Z,17.98
2022-09-30T21:25:23.533Z,18.01
2022-09-30T21:27:53.604Z,18.01
2022-09-30T21:30:29.022Z,17.99
2022-09-30T21:33:09.372Z,17.99
2022-09-30T21:35:40.250Z,17.97
2022-09-30T21:38:08.928Z,17.99
2022-09-30T21:40:38.449Z,17.98
2022-09-30T21:43:10.222Z,17.96
2022-09-30T21:45:38.693Z,17.98
2022-09-30T21:48:12.367Z,17.97
2022-09-30T21:50:42.090Z,17.97
2022-09-30T21:53:10.579Z,17.96
2022-09-30T21:55:38.992Z,17.95
2022-09-30T21:58:07.427Z,17.97
2022-09-30T22:00:36.067Z,17.93
2022-09-30T22:03:04.629Z,17.95
2022-09-30T22:05:33.536Z,17.94
2022-09-30T22:08:04.699Z,17.92
2022-09-30T22:10:33.082Z,17.94
2022-09-30T22:13:01.503Z,17.94
2022-09-30T22:15:30.020Z,17.94
2022-09-30T22:17:58.422Z,17.92
2022-09-30T22:20:28.584Z,17.90
2022-09-30T22:23:01.351Z,17.92
2022-09-30T22:25:33.290Z,17.89
2022-09-30T22:28:04.447Z,17.86
2022-09-30T22:30:34.274Z,17.92
2022-09-30T22:33:20.594Z,17.90
2022-09-30T22:36:06.735Z,17.91
2022-09-30T22:38:35.118Z,17.89
2022-09-30T22:41:05.156Z,17.88
2022-09-30T22:43:33.636Z,17.87
2022-09-30T22:46:03.128Z,17.88
2022-09-30T22:48:31.942Z,17.86
2022-09-30T22:51:00.905Z,17.85
2022-09-30T22:53:29.587Z,17.86
2022-09-30T22:55:57.915Z,17.85
2022-09-30T22:58:28.240Z,17.85
2022-09-30T23:00:59.241Z,17.84
2022-09-30T23:03:27.708Z,17.84
2022-09-30T23:06:00.752Z,17.82
2022-09-30T23:08:30.569Z,17.83
2022-09-30T23:11:00.236Z,17.82
2022-09-30T23:13:34.696Z,17.82
2022-09-30T23:16:03.559Z,17.83
2022-09-30T23:18:33.741Z,17.81
2022-09-30T23:21:03.876Z,17.81
2022-09-30T23:23:32.936Z,17.80
2022-09-30T23:26:02.867Z,17.80
2022-09-30T23:28:33.331Z,17.79
2022-09-30T23:31:03.277Z,17.79
2022-09-30T23:33:31.823Z,17.78
2022-09-30T23:36:00.918Z,17.77
2022-09-30T23:38:30.061Z,17.78
2022-09-30T23:40:59.906Z,17.77
2022-09-30T23:43:28.566Z,17.76
2022-09-30T23:45:58.804Z,17.76
2022-09-30T23:48:27.945Z,17.75
2022-09-30T23:50:56.479Z,17.73
2022-09-30T23:53:25.067Z,17.74
2022-09-30T23:55:57.162Z,17.73
2022-09-30T23:58:26.568Z,17.73
